createdAt,value
2019-02-15T00:01:08.177Z,78.27
2019-02-15T00:03:34.719Z,79.07
2019-02-15T00:06:01.422Z,79.84
2019-02-15T00:08:28.039Z,79.84
2019-02-15T00:10:54.527Z,80.05
2019-02-15T00:13:22.129Z,80.09
2019-02-15T00:15:48.615Z,80.26
2019-02-15T00:18:42.054Z,80.17
2019-02-15T00:21:19.923Z,80.54
2019-02-15T00:23:46.374Z,80.88
2019-02-15T00:26:13.102Z,81.08
2019-02-15T00:28:39.778Z,80.74
2019-02-15T00:31:08.177Z,80.60
2019-02-15T00:33:34.938Z,80.93
2019-02-15T00:36:01.491Z,80.95
2019-02-15T00:38:28.040Z,80.87
2019-02-15T00:40:54.582Z,80.49
2019-02-15T00:43:22.537Z,80.11
2019-02-15T00:46:00.819Z,80.02
2019-02-15T00:48:27.401Z,80.77
2019-02-15T00:51:03.425Z,80.67
2019-02-15T00:53:40.144Z,81.37
2019-02-15T00:56:23.640Z,81.72
2019-02-15T00:59:09.840Z,81.53
2019-02-15T01:01:51.752Z,80.93
2019-02-15T01:04:28.274Z,81.52
2019-02-15T01:07:20.299Z,81.35
2019-02-15T01:09:51.864Z,80.40
2019-02-15T01:12:44.312Z,79.95
2019-02-15T01:15:10.875Z,79.60
2019-02-15T01:17:37.376Z,78.92
2019-02-15T01:20:04.418Z,80.01
2019-02-15T01:22:30.980Z,81.29
2019-02-15T01:24:58.790Z,81.27
2019-02-15T01:27:47.629Z,81.16
2019-02-15T01:30:31.149Z,81.13
2019-02-15T01:33:17.359Z,81.19
2019-02-15T01:36:13.328Z,81.47
2019-02-15T01:38:58.022Z,81.33
2019-02-15T01:41:30.492Z,81.85
2019-02-15T01:44:07.899Z,81.60
2019-02-15T01:46:53.166Z,81.46
2019-02-15T01:49:19.730Z,81.25
2019-02-15T01:51:46.501Z,81.30
2019-02-15T01:54:13.453Z,81.41
2019-02-15T01:56:40.009Z,81.46
2019-02-15T01:59:06.529Z,81.51
2019-02-15T02:01:33.037Z,81.65
2019-02-15T02:03:59.522Z,82.33
2019-02-15T02:06:26.064Z,82.66
2019-02-15T02:08:52.558Z,83.11
2019-02-15T02:11:19.045Z,83.26
2019-02-15T02:13:49.767Z,82.47
2019-02-15T02:16:14.067Z,82.04
2019-02-15T02:18:40.534Z,81.75
2019-02-15T02:21:07.073Z,82.42
2019-02-15T02:23:33.578Z,82.77
2019-02-15T02:26:00.046Z,82.68
2019-02-15T02:28:26.551Z,83.29
2019-02-15T02:30:53.028Z,83.76
2019-02-15T02:33:21.649Z,84.09
2019-02-15T02:35:48.161Z,84.05
2019-02-15T02:38:14.690Z,83.20
2019-02-15T02:40:41.161Z,82.92
2019-02-15T02:43:07.699Z,83.00
2019-02-15T02:45:34.261Z,83.29
2019-02-15T02:48:00.776Z,83.33
2019-02-15T02:50:27.406Z,83.49
2019-02-15T02:52:54.063Z,83.79
2019-02-15T02:55:20.905Z,82.77
2019-02-15T02:57:47.707Z,82.92
2019-02-15T03:00:14.250Z,83.15
2019-02-15T03:02:40.712Z,83.33
2019-02-15T03:05:07.354Z,82.95
2019-02-15T03:07:33.912Z,82.14
2019-02-15T03:10:00.818Z,81.45
2019-02-15T03:12:27.284Z,80.76
2019-02-15T03:14:53.832Z,81.23
2019-02-15T03:17:20.310Z,80.60
2019-02-15T03:19:47.093Z,80.40
2019-02-15T03:22:13.593Z,80.27
2019-02-15T03:24:40.128Z,80.51
2019-02-15T03:27:06.774Z,80.56
2019-02-15T03:29:33.286Z,80.53
2019-02-15T03:32:00.029Z,80.86
2019-02-15T03:34:27.581Z,81.48
2019-02-15T03:37:06.435Z,82.75
2019-02-15T03:39:45.151Z,82.82
2019-02-15T03:42:13.094Z,83.50
2019-02-15T03:44:39.624Z,84.44
2019-02-15T03:47:06.173Z,84.89
2019-02-15T03:49:32.663Z,84.20
2019-02-15T03:51:59.414Z,84.68
2019-02-15T03:54:25.899Z,83.92
2019-02-15T03:56:52.460Z,82.96
2019-02-15T03:59:19.207Z,82.85
2019-02-15T04:01:45.713Z,82.93
2019-02-15T04:04:12.637Z,82.66
2019-02-15T04:06:39.173Z,82.10
2019-02-15T04:09:05.774Z,81.63
2019-02-15T04:11:32.544Z,81.38
2019-02-15T04:13:59.035Z,81.46
2019-02-15T04:16:25.633Z,81.62
2019-02-15T04:18:52.116Z,81.73
2019-02-15T04:21:18.673Z,81.33
2019-02-15T04:23:45.229Z,81.37
2019-02-15T04:26:11.793Z,81.21
2019-02-15T04:28:38.338Z,81.58
2019-02-15T04:31:04.844Z,81.23
2019-02-15T04:33:31.389Z,80.88
2019-02-15T04:35:57.931Z,80.79
2019-02-15T04:38:25.405Z,80.72
2019-02-15T04:40:52.392Z,81.14
2019-02-15T04:43:19.270Z,81.93
2019-02-15T04:45:45.767Z,81.84
2019-02-15T04:48:12.717Z,81.37
2019-02-15T04:50:39.191Z,80.74
2019-02-15T04:53:05.704Z,81.71
2019-02-15T04:55:32.453Z,81.59
2019-02-15T04:57:58.946Z,81.50
2019-02-15T05:00:25.520Z,81.30
2019-02-15T05:02:52.041Z,80.49
2019-02-15T05:05:18.532Z,80.38
2019-02-15T05:07:44.980Z,80.53
2019-02-15T05:10:11.484Z,81.36
2019-02-15T05:12:37.972Z,81.65
2019-02-15T05:15:04.573Z,82.11
2019-02-15T05:17:31.020Z,82.72
2019-02-15T05:19:57.502Z,82.52
2019-02-15T05:22:23.989Z,82.62
2019-02-15T05:24:50.514Z,82.79
2019-02-15T05:27:16.995Z,83.06
2019-02-15T05:29:43.445Z,82.65
2019-02-15T05:32:09.967Z,82.94
2019-02-15T05:34:36.561Z,82.90
2019-02-15T05:37:03.135Z,83.05
2019-02-15T05:39:29.646Z,82.70
2019-02-15T05:41:56.575Z,82.04
2019-02-15T05:44:23.092Z,81.62
2019-02-15T05:46:49.959Z,81.22
2019-02-15T05:49:16.394Z,81.17
2019-02-15T05:51:42.898Z,80.85
2019-02-15T05:54:09.430Z,80.50
2019-02-15T05:56:35.981Z,80.08
2019-02-15T05:59:02.435Z,80.42
2019-02-15T06:01:29.531Z,80.72
2019-02-15T06:03:56.046Z,80.07
2019-02-15T06:06:22.549Z,79.23
2019-02-15T06:08:50.341Z,78.44
2019-02-15T06:11:16.832Z,78.61
2019-02-15T06:13:43.645Z,78.96
2019-02-15T06:16:10.106Z,79.42
2019-02-15T06:18:36.623Z,80.14
2019-02-15T06:21:03.135Z,80.83
2019-02-15T06:23:29.670Z,81.35
2019-02-15T06:25:56.150Z,81.74
2019-02-15T06:28:22.703Z,81.72
2019-02-15T06:30:49.188Z,81.28
2019-02-15T06:33:15.965Z,81.12
2019-02-15T06:35:42.512Z,80.83
2019-02-15T06:38:09.221Z,80.39
2019-02-15T06:40:36.088Z,80.54
2019-02-15T06:43:03.119Z,80.71
2019-02-15T06:45:29.705Z,81.13
2019-02-15T06:47:56.246Z,81.37
2019-02-15T06:50:22.935Z,81.52
2019-02-15T06:52:49.642Z,82.03
2019-02-15T06:55:16.163Z,83.10
2019-02-15T06:57:42.800Z,83.62
2019-02-15T07:00:42.041Z,83.43
2019-02-15T07:03:31.623Z,82.67
2019-02-15T07:05:58.543Z,82.82
2019-02-15T07:08:25.071Z,83.48
2019-02-15T07:10:52.203Z,83.98
2019-02-15T07:13:20.860Z,83.99
2019-02-15T07:15:47.538Z,83.83
2019-02-15T07:18:14.284Z,83.66
2019-02-15T07:20:41.017Z,83.34
2019-02-15T07:23:07.649Z,83.20
2019-02-15T07:25:34.190Z,82.96
2019-02-15T07:28:00.904Z,82.60
2019-02-15T07:30:27.855Z,82.81
2019-02-15T07:32:54.459Z,82.63
2019-02-15T07:35:21.273Z,82.62
2019-02-15T07:37:48.011Z,82.47
2019-02-15T07:40:14.593Z,82.52
2019-02-15T07:42:41.148Z,82.39
2019-02-15T07:45:08.245Z,81.88
2019-02-15T07:47:35.377Z,81.01
2019-02-15T07:50:02.020Z,80.48
2019-02-15T07:52:35.735Z,79.42
2019-02-15T07:55:03.046Z,78.81
2019-02-15T07:57:30.740Z,78.82
2019-02-15T07:59:57.987Z,78.24
2019-02-15T08:02:29.000Z,78.43
2019-02-15T08:04:56.877Z,78.82
2019-02-15T08:07:23.547Z,79.34
2019-02-15T08:09:50.100Z,79.04
2019-02-15T08:12:16.872Z,78.41
2019-02-15T08:14:43.442Z,77.56
2019-02-15T08:17:10.001Z,76.71
2019-02-15T08:19:36.573Z,74.62
2019-02-15T08:22:03.662Z,73.59
2019-02-15T08:24:30.416Z,70.54
2019-02-15T08:26:57.338Z,67.32
2019-02-15T08:29:24.691Z,66.11
2019-02-15T08:31:53.525Z,64.98
2019-02-15T08:34:20.497Z,62.89
2019-02-15T08:36:47.066Z,61.04
2019-02-15T08:39:14.038Z,59.35
2019-02-15T08:41:41.101Z,57.48
2019-02-15T08:44:07.853Z,56.35
2019-02-15T08:46:34.449Z,55.47
2019-02-15T08:49:01.471Z,53.99
2019-02-15T08:51:29.157Z,53.10
2019-02-15T08:53:55.809Z,52.30
2019-02-15T08:56:22.485Z,51.73
2019-02-15T08:58:49.357Z,50.83
2019-02-15T09:01:16.006Z,50.70
2019-02-15T09:03:42.773Z,50.36
2019-02-15T09:06:09.958Z,50.29
2019-02-15T09:08:37.636Z,50.02
2019-02-15T09:11:04.412Z,50.25
2019-02-15T09:13:31.379Z,50.33
2019-02-15T09:15:58.981Z,48.01
2019-02-15T09:18:25.517Z,47.62
2019-02-15T09:20:52.798Z,48.17
2019-02-15T09:23:19.389Z,47.12
2019-02-15T09:25:46.099Z,46.05
2019-02-15T09:28:26.551Z,44.50
2019-02-15T09:30:54.224Z,44.47
2019-02-15T09:33:20.857Z,45.39
2019-02-15T09:35:47.414Z,43.45
2019-02-15T09:38:14.006Z,43.92
2019-02-15T09:40:40.594Z,42.10
2019-02-15T09:43:07.197Z,42.94
2019-02-15T09:45:33.787Z,42.04
2019-02-15T09:48:00.776Z,42.70
2019-02-15T09:50:27.569Z,43.79
2019-02-15T09:52:54.370Z,43.63
2019-02-15T09:55:21.091Z,42.47
2019-02-15T09:57:48.076Z,42.72
2019-02-15T10:00:18.397Z,41.33
2019-02-15T10:02:45.047Z,41.79
2019-02-15T10:05:12.135Z,41.56
2019-02-15T10:07:40.975Z,41.40
2019-02-15T10:10:07.691Z,42.18
2019-02-15T10:12:34.277Z,42.36
2019-02-15T10:15:01.004Z,41.20
2019-02-15T10:17:27.522Z,41.00
2019-02-15T10:19:54.232Z,40.38
2019-02-15T10:22:20.825Z,40.24
2019-02-15T10:24:47.457Z,40.77
2019-02-15T10:27:14.312Z,40.43
2019-02-15T10:29:40.891Z,40.00
2019-02-15T10:32:07.507Z,39.05
2019-02-15T10:34:34.157Z,38.69
2019-02-15T10:37:00.662Z,39.64
2019-02-15T10:39:27.227Z,39.75
2019-02-15T10:41:53.841Z,40.69
2019-02-15T10:44:22.521Z,39.13
2019-02-15T10:46:49.066Z,38.11
2019-02-15T10:49:15.617Z,38.07
2019-02-15T10:51:42.817Z,38.23
2019-02-15T10:54:09.367Z,37.76
2019-02-15T10:56:35.899Z,37.49
2019-02-15T10:59:02.654Z,37.46
2019-02-15T11:01:29.279Z,36.50
2019-02-15T11:03:56.012Z,35.82
2019-02-15T11:06:22.784Z,36.27
2019-02-15T11:08:49.414Z,36.00
2019-02-15T11:11:16.453Z,35.44
2019-02-15T11:13:43.234Z,35.31
2019-02-15T11:16:09.797Z,35.29
2019-02-15T11:18:36.467Z,34.80
2019-02-15T11:21:12.251Z,34.65
2019-02-15T11:23:42.176Z,35.35
2019-02-15T11:26:08.799Z,35.73
2019-02-15T11:28:35.423Z,35.64
2019-02-15T11:31:02.436Z,36.76
2019-02-15T11:33:29.651Z,36.53
2019-02-15T11:35:56.207Z,36.53
2019-02-15T11:38:22.850Z,36.46
2019-02-15T11:40:49.370Z,36.46
2019-02-15T11:43:15.918Z,35.56
2019-02-15T11:45:42.421Z,35.13
2019-02-15T11:48:08.953Z,37.65
2019-02-15T11:50:35.480Z,38.27
2019-02-15T11:53:02.275Z,37.96
2019-02-15T11:55:30.961Z,37.96
2019-02-15T11:57:57.567Z,38.17
2019-02-15T12:00:30.762Z,37.04
2019-02-15T12:02:59.246Z,37.04
2019-02-15T12:05:25.771Z,37.79
2019-02-15T12:07:52.306Z,36.66
2019-02-15T12:10:18.905Z,36.30
2019-02-15T12:12:45.434Z,36.50
2019-02-15T12:15:12.073Z,36.48
2019-02-15T12:17:38.604Z,37.01
2019-02-15T12:20:30.229Z,37.30
2019-02-15T12:22:56.762Z,36.92
2019-02-15T12:25:23.295Z,37.65
2019-02-15T12:27:51.865Z,38.05
2019-02-15T12:30:18.493Z,38.05
2019-02-15T12:32:45.035Z,37.78
2019-02-15T12:35:11.864Z,37.13
2019-02-15T12:37:38.616Z,37.51
2019-02-15T12:40:05.385Z,37.51
2019-02-15T12:42:31.889Z,37.15
2019-02-15T12:44:58.596Z,37.20
2019-02-15T12:47:25.085Z,37.36
2019-02-15T12:49:51.614Z,37.18
2019-02-15T12:52:21.630Z,37.07
2019-02-15T12:54:48.196Z,37.47
2019-02-15T12:57:42.932Z,37.42
2019-02-15T13:00:11.275Z,37.32
2019-02-15T13:02:38.120Z,37.78
2019-02-15T13:05:05.142Z,37.78
2019-02-15T13:07:31.794Z,37.75
2019-02-15T13:09:58.389Z,38.56
2019-02-15T13:12:24.863Z,37.13
2019-02-15T13:14:51.411Z,37.13
2019-02-15T13:17:24.454Z,37.88
2019-02-15T13:19:46.635Z,38.80
2019-02-15T13:22:13.905Z,38.97
2019-02-15T13:24:40.520Z,38.97
2019-02-15T13:27:07.385Z,39.36
2019-02-15T13:29:33.936Z,39.95
2019-02-15T13:32:00.730Z,39.95
2019-02-15T13:34:27.263Z,40.90
2019-02-15T13:36:53.820Z,40.90
2019-02-15T13:39:20.321Z,41.27
2019-02-15T13:41:46.891Z,41.43
2019-02-15T13:44:13.615Z,42.13
2019-02-15T13:46:40.406Z,42.95
2019-02-15T13:49:06.929Z,43.14
2019-02-15T13:51:33.477Z,43.31
2019-02-15T13:54:00.122Z,43.05
2019-02-15T13:56:26.642Z,43.84
2019-02-15T13:58:53.166Z,44.38
2019-02-15T14:01:19.868Z,44.71
2019-02-15T14:03:46.612Z,45.50
2019-02-15T14:06:13.476Z,45.75
2019-02-15T14:08:40.428Z,45.88
2019-02-15T14:11:07.116Z,45.95
2019-02-15T14:13:33.663Z,46.46
2019-02-15T14:16:00.213Z,47.11
2019-02-15T14:18:27.071Z,47.77
2019-02-15T14:20:59.806Z,48.16
2019-02-15T14:23:30.073Z,48.11
2019-02-15T14:26:09.017Z,48.88
2019-02-15T14:29:02.683Z,49.02
2019-02-15T14:31:29.500Z,49.21
2019-02-15T14:33:56.804Z,49.90
2019-02-15T14:36:23.943Z,49.93
2019-02-15T14:38:50.518Z,49.78
2019-02-15T14:41:17.174Z,49.79
2019-02-15T14:43:43.885Z,49.95
2019-02-15T14:46:10.623Z,49.91
2019-02-15T14:48:37.242Z,50.48
2019-02-15T14:51:03.796Z,50.89
2019-02-15T14:53:30.382Z,51.32
2019-02-15T14:55:57.064Z,51.85
2019-02-15T14:58:24.017Z,52.03
2019-02-15T15:00:50.711Z,52.20
2019-02-15T15:03:17.596Z,52.65
2019-02-15T15:05:44.197Z,53.05
2019-02-15T15:08:14.924Z,53.48
2019-02-15T15:10:42.392Z,53.45
2019-02-15T15:13:09.146Z,53.84
2019-02-15T15:15:36.323Z,53.68
2019-02-15T15:18:13.234Z,54.28
2019-02-15T15:20:35.662Z,54.63
2019-02-15T15:23:02.551Z,54.60
2019-02-15T15:25:31.207Z,55.06
2019-02-15T15:27:58.502Z,55.23
2019-02-15T15:30:25.109Z,55.03
2019-02-15T15:32:51.627Z,55.40
2019-02-15T15:35:19.365Z,56.08
2019-02-15T15:37:46.373Z,56.18
2019-02-15T15:40:12.980Z,57.00
2019-02-15T15:42:39.702Z,55.97
2019-02-15T15:45:07.474Z,56.33
2019-02-15T15:47:34.494Z,56.68
2019-02-15T15:50:02.059Z,56.81
2019-02-15T15:52:28.965Z,56.93
2019-02-15T15:54:56.573Z,57.12
2019-02-15T15:57:29.446Z,57.63
2019-02-15T16:00:04.896Z,57.98
2019-02-15T16:02:37.623Z,58.37
2019-02-15T16:05:08.334Z,58.96
2019-02-15T16:07:35.108Z,59.81
2019-02-15T16:10:01.955Z,62.07
2019-02-15T16:12:32.702Z,62.62
2019-02-15T16:15:04.222Z,63.32
2019-02-15T16:17:33.447Z,64.37
2019-02-15T16:20:05.935Z,65.66
2019-02-15T16:22:36.231Z,66.50
2019-02-15T16:25:08.562Z,67.31
2019-02-15T16:27:49.401Z,68.07
2019-02-15T16:30:21.506Z,68.32
2019-02-15T16:32:57.208Z,68.73
2019-02-15T16:35:26.577Z,69.34
2019-02-15T16:38:02.788Z,69.73
2019-02-15T16:40:33.208Z,69.81
2019-02-15T16:43:05.474Z,70.91
2019-02-15T16:45:32.624Z,71.36
2019-02-15T16:47:59.649Z,71.87
2019-02-15T16:50:26.178Z,72.67
2019-02-15T16:52:55.669Z,73.11
2019-02-15T16:55:23.246Z,73.47
2019-02-15T16:57:49.788Z,73.61
2019-02-15T17:00:17.831Z,73.56
2019-02-15T17:02:45.439Z,73.07
2019-02-15T17:05:12.570Z,73.51
2019-02-15T17:07:43.442Z,73.86
2019-02-15T17:10:10.560Z,74.13
2019-02-15T17:12:37.182Z,74.22
2019-02-15T17:15:03.893Z,74.45
2019-02-15T17:17:30.815Z,74.55
2019-02-15T17:19:57.663Z,74.57
2019-02-15T17:22:25.003Z,75.69
2019-02-15T17:24:52.230Z,75.32
2019-02-15T17:27:25.539Z,75.93
2019-02-15T17:29:52.877Z,76.47
2019-02-15T17:32:21.064Z,76.40
2019-02-15T17:34:49.157Z,76.75
2019-02-15T17:37:17.417Z,76.34
2019-02-15T17:39:46.890Z,76.50
2019-02-15T17:42:14.748Z,76.88
2019-02-15T17:44:45.909Z,77.18
2019-02-15T17:47:17.012Z,77.61
2019-02-15T17:49:43.886Z,77.30
2019-02-15T17:52:13.075Z,76.79
2019-02-15T17:54:40.473Z,76.13
2019-02-15T17:57:09.077Z,76.41
2019-02-15T17:59:35.750Z,76.18
2019-02-15T18:02:02.607Z,75.85
2019-02-15T18:04:29.269Z,76.33
2019-02-15T18:06:57.103Z,75.98
2019-02-15T18:09:24.507Z,76.04
2019-02-15T18:11:52.593Z,76.39
2019-02-15T18:14:19.930Z,77.17
2019-02-15T18:16:49.507Z,77.55
2019-02-15T18:19:16.866Z,78.85
2019-02-15T18:21:44.081Z,78.58
2019-02-15T18:24:11.973Z,78.08
2019-02-15T18:26:38.637Z,77.51
2019-02-15T18:29:05.520Z,77.84
2019-02-15T18:31:32.117Z,77.28
2019-02-15T18:33:58.890Z,76.94
2019-02-15T18:36:26.752Z,74.83
2019-02-15T18:38:53.610Z,74.48
2019-02-15T18:41:20.270Z,76.14
2019-02-15T18:43:48.038Z,76.73
2019-02-15T18:46:14.727Z,77.38
2019-02-15T18:48:41.376Z,76.90
2019-02-15T18:51:09.617Z,75.85
2019-02-15T18:53:36.088Z,76.34
2019-02-15T18:56:02.997Z,75.31
2019-02-15T18:58:30.875Z,74.81
2019-02-15T19:00:58.015Z,74.99
2019-02-15T19:03:25.387Z,75.86
2019-02-15T19:05:52.036Z,76.68
2019-02-15T19:08:19.075Z,76.95
2019-02-15T19:10:49.536Z,77.75
2019-02-15T19:13:17.455Z,77.25
2019-02-15T19:15:44.320Z,76.59
2019-02-15T19:18:11.514Z,75.87
2019-02-15T19:20:38.447Z,75.31
2019-02-15T19:23:05.225Z,74.50
2019-02-15T19:25:38.194Z,73.82
2019-02-15T19:28:04.797Z,73.86
2019-02-15T19:30:31.678Z,74.15
2019-02-15T19:32:58.433Z,73.94
2019-02-15T19:35:26.294Z,74.07
2019-02-15T19:37:52.859Z,74.38
2019-02-15T19:40:19.607Z,73.67
2019-02-15T19:42:48.065Z,72.71
2019-02-15T19:45:43.135Z,72.24
2019-02-15T19:48:10.202Z,72.16
2019-02-15T19:50:37.000Z,72.75
2019-02-15T19:53:06.285Z,72.91
2019-02-15T19:55:33.250Z,72.67
2019-02-15T19:57:59.939Z,72.12
2019-02-15T20:00:26.790Z,68.49
2019-02-15T20:03:01.084Z,68.02
2019-02-15T20:05:27.764Z,66.90
2019-02-15T20:07:56.451Z,65.45
2019-02-15T20:10:23.545Z,64.98
2019-02-15T20:12:50.685Z,62.78
2019-02-15T20:15:17.365Z,60.04
2019-02-15T20:17:43.927Z,58.34
2019-02-15T20:20:12.752Z,58.59
2019-02-15T20:22:39.354Z,59.62
2019-02-15T20:25:07.881Z,59.35
2019-02-15T20:27:34.699Z,58.89
2019-02-15T20:30:03.418Z,59.06
2019-02-15T20:32:30.258Z,58.90
2019-02-15T20:34:56.821Z,59.59
2019-02-15T20:37:23.660Z,59.42
2019-02-15T20:39:50.148Z,58.84
2019-02-15T20:42:17.342Z,59.00
2019-02-15T20:44:44.295Z,60.14
2019-02-15T20:47:11.170Z,59.94
2019-02-15T20:49:38.581Z,60.24
2019-02-15T20:52:05.290Z,60.29
2019-02-15T20:54:32.237Z,60.00
2019-02-15T20:57:01.576Z,59.05
2019-02-15T20:59:35.560Z,58.96
2019-02-15T21:02:04.316Z,59.10
2019-02-15T21:04:30.876Z,58.93
2019-02-15T21:07:00.128Z,59.39
2019-02-15T21:09:31.049Z,59.27
2019-02-15T21:11:59.026Z,59.23
2019-02-15T21:14:27.020Z,58.56
2019-02-15T21:16:53.992Z,58.59
2019-02-15T21:19:21.075Z,58.90
2019-02-15T21:21:47.746Z,58.98
2019-02-15T21:24:22.677Z,58.95
2019-02-15T21:26:51.673Z,59.47
2019-02-15T21:29:20.581Z,59.96
2019-02-15T21:31:48.286Z,60.19
2019-02-15T21:34:14.871Z,60.64
2019-02-15T21:36:41.402Z,60.29
2019-02-15T21:39:08.074Z,60.63
2019-02-15T21:41:34.577Z,60.36
2019-02-15T21:44:01.052Z,60.65
2019-02-15T21:46:27.548Z,59.72
2019-02-15T21:48:54.059Z,59.62
2019-02-15T21:51:20.585Z,60.18
2019-02-15T21:53:47.044Z,59.87
2019-02-15T21:56:13.595Z,61.17
2019-02-15T21:58:40.238Z,61.88
2019-02-15T22:01:06.817Z,62.57
2019-02-15T22:03:33.584Z,63.29
2019-02-15T22:06:00.046Z,63.56
2019-02-15T22:08:26.582Z,64.12
2019-02-15T22:10:53.066Z,64.37
2019-02-15T22:13:19.596Z,65.37
2019-02-15T22:15:46.130Z,65.26
2019-02-15T22:18:12.607Z,65.08
2019-02-15T22:20:39.139Z,65.13
2019-02-15T22:23:05.635Z,66.00
2019-02-15T22:25:32.171Z,66.02
2019-02-15T22:27:58.990Z,65.40
2019-02-15T22:30:25.557Z,64.31
2019-02-15T22:32:52.940Z,62.23
2019-02-15T22:35:19.420Z,62.04
2019-02-15T22:37:45.932Z,62.01
2019-02-15T22:40:32.476Z,61.00
2019-02-15T22:43:01.842Z,61.25
2019-02-15T22:45:30.042Z,61.96
2019-02-15T22:47:56.513Z,62.22
2019-02-15T22:50:23.023Z,61.85
2019-02-15T22:52:49.612Z,60.43
2019-02-15T22:55:16.086Z,59.25
2019-02-15T22:57:42.550Z,59.73
2019-02-15T23:00:15.373Z,60.29
2019-02-15T23:02:41.850Z,61.16
2019-02-15T23:05:08.334Z,62.24
2019-02-15T23:07:34.792Z,63.83
2019-02-15T23:10:01.261Z,63.92
2019-02-15T23:12:27.772Z,64.03
2019-02-15T23:14:54.236Z,64.59
2019-02-15T23:17:20.988Z,64.71
2019-02-15T23:19:47.771Z,64.47
2019-02-15T23:22:14.240Z,65.47
2019-02-15T23:24:40.747Z,65.56
2019-02-15T23:27:07.208Z,65.41
2019-02-15T23:29:33.729Z,65.88
2019-02-15T23:32:00.223Z,66.51
2019-02-15T23:34:27.030Z,66.40
2019-02-15T23:36:53.545Z,66.67
2019-02-15T23:39:20.285Z,66.30
2019-02-15T23:41:46.857Z,64.86
2019-02-15T23:44:13.361Z,62.46
2019-02-15T23:46:39.823Z,59.36
2019-02-15T23:49:06.326Z,56.90
2019-02-15T23:51:33.183Z,55.27
2019-02-15T23:53:59.682Z,54.02
2019-02-15T23:56:26.167Z,52.77
2019-02-15T23:58:53.151Z,52.46
